Time;durP1;ratioP1;P1;durP2;ratioP2;P2;SDS_P1;SDS_P2;PMS_P1;PMS_P2;Temp;Humidity;BMP_temperature;BMP_pressure;BME280_temperature;BME280_humidity;BME280_pressure;Samples;Min_cycle;Max_cycle;Signal;HPM_P1;HPM_P2
2021/10/09 00:03:21;;;;;;;0.30;0.30;;;;;;;;;;10403567;28;20381;-70
2021/10/09 00:08:25;;;;;;;0.20;0.20;;;;;;;;;;10401613;28;20858;-70
2021/10/09 00:13:28;;;;;;;0.45;0.40;;;;;;;;;;10414970;28;20045;-70
2021/10/09 00:18:31;;;;;;;0.88;0.35;;;;;;;;;;10412272;28;20069;-71
2021/10/09 00:23:35;;;;;;;0.30;0.30;;;;;;;;;;10420756;28;20053;-71
2021/10/09 00:28:38;;;;;;;0.30;0.30;;;;;;;;;;10418789;28;20055;-71
2021/10/09 00:33:40;;;;;;;0.30;0.30;;;;;;;;;;10415291;28;20100;-70
2021/10/09 00:38:45;;;;;;;0.30;0.30;;;;;;;;;;10413252;28;20064;-71
2021/10/09 00:43:47;;;;;;;0.32;0.32;;;;;;;;;;10395897;28;20426;-71
2021/10/09 00:48:50;;;;;;;0.30;0.30;;;;;;;;;;10425720;28;20114;-71
2021/10/09 00:53:55;;;;;;;0.30;0.30;;;;;;;;;;10393549;28;20064;-71
2021/10/09 00:58:58;;;;;;;0.30;0.28;;;;;;;;;;10408916;28;20483;-71
2021/10/09 01:04:01;;;;;;;0.30;0.30;;;;;;;;;;10399495;28;20049;-71
2021/10/09 01:09:05;;;;;;;0.57;0.30;;;;;;;;;;10395072;28;20077;-71
2021/10/09 01:14:09;;;;;;;0.40;0.40;;;;;;;;;;10399223;28;20056;-71
2021/10/09 01:19:13;;;;;;;0.28;0.28;;;;;;;;;;10397129;28;20060;-71
2021/10/09 01:24:21;;;;;;;0.52;0.32;;;;;;;;;;10391696;28;20048;-71
2021/10/09 01:29:25;;;;;;;0.30;0.30;;;;;;;;;;10396078;28;20484;-71
2021/10/09 01:34:31;;;;;;;0.30;0.30;;;;;;;;;;10398748;28;20063;-71
2021/10/09 01:39:43;;;;;;;0.30;0.30;;;;;;;;;;10398119;28;20973;-71
2021/10/09 01:44:48;;;;;;;0.30;0.30;;;;;;;;;;10397862;28;20454;-71
2021/10/09 01:49:51;;;;;;;0.43;0.30;;;;;;;;;;10391618;28;20052;-71
2021/10/09 01:54:55;;;;;;;1.10;0.45;;;;;;;;;;10414494;28;20045;-71
2021/10/09 01:59:59;;;;;;;0.20;0.20;;;;;;;;;;10398678;28;20202;-72
2021/10/09 02:05:20;;;;;;;0.30;0.30;;;;;;;;;;10404100;28;20518;-71
2021/10/09 02:10:24;;;;;;;0.47;0.40;;;;;;;;;;10411934;28;20049;-72
2021/10/09 02:15:33;;;;;;;0.30;0.30;;;;;;;;;;10392541;28;20049;-71
2021/10/09 02:25:58;;;;;;;0.40;0.40;;;;;;;;;;10398933;28;20041;-68
2021/10/09 02:31:03;;;;;;;0.32;0.32;;;;;;;;;;10379791;28;20135;-69
2021/10/09 02:36:39;;;;;;;0.35;0.35;;;;;;;;;;10400369;28;20046;-69
2021/10/09 02:41:45;;;;;;;0.40;0.40;;;;;;;;;;10405271;28;20047;-69
2021/10/09 02:46:48;;;;;;;0.30;0.30;;;;;;;;;;10393286;28;20939;-68
2021/10/09 02:51:52;;;;;;;0.40;0.40;;;;;;;;;;10389362;28;20048;-67
2021/10/09 02:56:56;;;;;;;0.38;0.38;;;;;;;;;;10393025;28;20454;-68
2021/10/09 03:02:00;;;;;;;0.40;0.40;;;;;;;;;;10390494;28;20130;-68
2021/10/09 03:07:05;;;;;;;0.40;0.40;;;;;;;;;;10379449;28;20057;-68
2021/10/09 03:12:10;;;;;;;6.63;2.20;;;;;;;;;;10379523;28;20457;-68
2021/10/09 03:17:13;;;;;;;5.90;1.23;;;;;;;;;;10380179;28;20056;-69
2021/10/09 03:22:17;;;;;;;8.40;1.67;;;;;;;;;;10381797;28;20743;-69
2021/10/09 03:27:21;;;;;;;7.07;1.48;;;;;;;;;;10382379;28;20049;-69
2021/10/09 03:32:24;;;;;;;0.98;0.60;;;;;;;;;;10379990;28;20171;-69
2021/10/09 03:37:27;;;;;;;3.55;0.80;;;;;;;;;;10390249;28;20040;-69
2021/10/09 03:42:36;;;;;;;1.73;0.77;;;;;;;;;;10379006;28;20724;-68
2021/10/09 03:47:57;;;;;;;0.40;0.40;;;;;;;;;;10380191;28;20837;-69
2021/10/09 03:53:00;;;;;;;2.17;0.70;;;;;;;;;;10382179;28;20045;-68
2021/10/09 03:58:05;;;;;;;0.50;0.40;;;;;;;;;;10373203;28;20050;-69
2021/10/09 04:03:09;;;;;;;0.40;0.40;;;;;;;;;;10382449;28;20045;-68
2021/10/09 04:08:13;;;;;;;0.40;0.40;;;;;;;;;;10383049;28;20064;-68
2021/10/09 04:13:18;;;;;;;0.30;0.30;;;;;;;;;;10403151;28;20044;-68
2021/10/09 04:18:21;;;;;;;0.40;0.40;;;;;;;;;;10395868;28;20052;-68
2021/10/09 04:23:24;;;;;;;0.30;0.30;;;;;;;;;;10399655;28;20042;-68
2021/10/09 04:28:28;;;;;;;0.52;0.50;;;;;;;;;;10419179;28;20057;-68
2021/10/09 04:33:31;;;;;;;0.43;0.40;;;;;;;;;;10391333;28;20059;-69
2021/10/09 04:38:34;;;;;;;0.38;0.38;;;;;;;;;;10394715;28;20045;-68
2021/10/09 04:43:39;;;;;;;0.80;0.40;;;;;;;;;;10422702;28;20049;-68
2021/10/09 04:48:42;;;;;;;0.30;0.30;;;;;;;;;;10394281;28;20050;-68
2021/10/09 04:53:46;;;;;;;0.40;0.40;;;;;;;;;;10419250;28;20054;-69
2021/10/09 04:58:50;;;;;;;0.60;0.60;;;;;;;;;;10413571;28;20061;-68
2021/10/09 05:03:54;;;;;;;2.40;0.60;;;;;;;;;;10398247;28;20049;-69
2021/10/09 05:08:58;;;;;;;6.47;1.08;;;;;;;;;;10398300;28;20069;-69
2021/10/09 05:14:03;;;;;;;2.28;0.70;;;;;;;;;;10385847;28;20482;-69
2021/10/09 05:19:08;;;;;;;3.50;1.02;;;;;;;;;;10384567;28;20140;-69
2021/10/09 05:24:12;;;;;;;5.55;0.95;;;;;;;;;;10386731;28;20045;-70
2021/10/09 05:29:19;;;;;;;1.80;0.68;;;;;;;;;;10379842;28;20045;-70
2021/10/09 05:34:22;;;;;;;3.38;0.65;;;;;;;;;;10385617;28;20053;-70
2021/10/09 05:39:25;;;;;;;1.55;0.75;;;;;;;;;;10371326;28;20049;-70
2021/10/09 05:44:32;;;;;;;2.15;0.60;;;;;;;;;;10380238;28;20566;-71
2021/10/09 05:49:37;;;;;;;6.97;1.40;;;;;;;;;;10373819;28;20072;-69
2021/10/09 05:54:44;;;;;;;2.80;0.90;;;;;;;;;;10376711;28;20852;-68
2021/10/09 06:32:27;;;;;;;2.50;0.60;;;;;;;;;;10376485;28;20058;-67
2021/10/09 06:38:11;;;;;;;8.88;1.52;;;;;;;;;;10374286;28;20049;-66
2021/10/09 06:49:06;;;;;;;5.10;1.20;;;;;;;;;;10372248;28;20064;-74
2021/10/09 06:59:38;;;;;;;10.02;1.92;;;;;;;;;;10336112;28;20053;-69
2021/10/09 07:04:44;;;;;;;2.50;1.20;;;;;;;;;;10382420;28;20144;-69
2021/10/09 07:09:47;;;;;;;9.60;2.08;;;;;;;;;;10390627;28;20064;-70
2021/10/09 07:14:54;;;;;;;7.47;2.13;;;;;;;;;;10381089;28;20049;-69
2021/10/09 07:19:59;;;;;;;1.95;0.68;;;;;;;;;;10382212;28;20060;-68
2021/10/09 07:25:03;;;;;;;4.45;1.45;;;;;;;;;;10380947;28;20045;-68
2021/10/09 07:30:06;;;;;;;1.40;0.80;;;;;;;;;;10380806;28;20042;-69
2021/10/09 07:35:11;;;;;;;8.93;2.30;;;;;;;;;;10400904;28;20041;-68
2021/10/09 07:40:14;;;;;;;5.20;1.20;;;;;;;;;;10401399;28;20459;-69
2021/10/09 07:45:17;;;;;;;1.20;0.70;;;;;;;;;;10400902;28;20046;-69
2021/10/09 07:50:21;;;;;;;0.50;0.50;;;;;;;;;;10402787;28;20055;-69
2021/10/09 07:55:24;;;;;;;0.40;0.40;;;;;;;;;;10404846;28;20053;-68
2021/10/09 08:00:27;;;;;;;1.00;0.57;;;;;;;;;;10408292;28;20484;-68
2021/10/09 08:05:33;;;;;;;0.50;0.50;;;;;;;;;;10422106;28;20046;-67
2021/10/09 08:10:36;;;;;;;0.40;0.40;;;;;;;;;;10407595;28;20151;-67
2021/10/09 08:15:39;;;;;;;0.40;0.40;;;;;;;;;;10423423;28;20033;-69
2021/10/09 08:20:45;;;;;;;0.40;0.40;;;;;;;;;;10423789;28;20052;-69
2021/10/09 08:36:33;;;;;;;0.40;0.40;;;;;;;;;;10413304;28;20571;-67
2021/10/09 08:41:36;;;;;;;0.40;0.40;;;;;;;;;;10406569;28;20941;-68
2021/10/09 08:46:39;;;;;;;0.50;0.50;;;;;;;;;;10419938;28;20395;-66
2021/10/09 08:51:43;;;;;;;0.40;0.40;;;;;;;;;;10397915;28;20136;-68
2021/10/09 08:56:48;;;;;;;0.40;0.40;;;;;;;;;;10418849;28;20174;-68
2021/10/09 09:02:02;;;;;;;0.40;0.40;;;;;;;;;;10416315;28;20045;-68
2021/10/09 09:34:12;;;;;;;0.30;0.30;;;;;;;;;;10397162;28;20045;-68
2021/10/09 09:39:16;;;;;;;0.30;0.30;;;;;;;;;;10380176;28;20041;-68
2021/10/09 09:44:21;;;;;;;0.30;0.30;;;;;;;;;;10397431;28;20562;-68
2021/10/09 09:49:24;;;;;;;0.40;0.40;;;;;;;;;;10396646;28;20046;-68
2021/10/09 09:54:31;;;;;;;0.30;0.30;;;;;;;;;;10396757;28;20038;-68
2021/10/09 09:59:34;;;;;;;0.32;0.32;;;;;;;;;;10396003;28;20064;-68
2021/10/09 10:04:37;;;;;;;0.30;0.30;;;;;;;;;;10395523;28;20048;-68
2021/10/09 10:09:41;;;;;;;0.40;0.40;;;;;;;;;;10398051;28;20055;-67
2021/10/09 10:14:47;;;;;;;0.40;0.40;;;;;;;;;;10393931;28;20115;-67
2021/10/09 10:20:00;;;;;;;0.40;0.40;;;;;;;;;;10395189;28;20048;-68
2021/10/09 10:25:25;;;;;;;0.40;0.40;;;;;;;;;;10410825;28;20048;-65
2021/10/09 10:30:29;;;;;;;0.50;0.50;;;;;;;;;;10416201;28;20147;-65
2021/10/09 10:35:45;;;;;;;1.23;0.40;;;;;;;;;;10407819;28;20723;-65
2021/10/09 10:40:50;;;;;;;0.40;0.40;;;;;;;;;;10412411;28;20047;-65
2021/10/09 10:45:52;;;;;;;0.47;0.47;;;;;;;;;;10412431;28;20128;-65
2021/10/09 10:56:16;;;;;;;0.32;0.32;;;;;;;;;;10413221;28;20386;-65
2021/10/09 11:01:20;;;;;;;0.40;0.40;;;;;;;;;;10395670;28;20099;-65
2021/10/09 11:06:24;;;;;;;0.40;0.40;;;;;;;;;;10406356;28;20044;-65
2021/10/09 11:11:34;;;;;;;0.30;0.30;;;;;;;;;;10394779;28;20654;-65
2021/10/09 11:16:37;;;;;;;0.40;0.35;;;;;;;;;;10392247;28;20045;-65
2021/10/09 11:21:52;;;;;;;0.40;0.40;;;;;;;;;;10385552;28;20761;-65
2021/10/09 11:26:57;;;;;;;0.35;0.35;;;;;;;;;;10390447;28;20048;-65
2021/10/09 11:32:01;;;;;;;0.30;0.30;;;;;;;;;;10384698;28;20092;-64
2021/10/09 11:37:04;;;;;;;0.30;0.30;;;;;;;;;;10391913;28;20049;-64
2021/10/09 11:42:11;;;;;;;0.40;0.40;;;;;;;;;;10393820;28;20045;-64
2021/10/09 11:47:38;;;;;;;0.30;0.30;;;;;;;;;;10388307;28;20037;-65
2021/10/09 11:58:04;;;;;;;0.40;0.40;;;;;;;;;;10389801;28;20044;-65
2021/10/09 12:03:35;;;;;;;0.57;0.40;;;;;;;;;;10389568;28;20037;-65
2021/10/09 12:08:47;;;;;;;0.40;0.40;;;;;;;;;;10391805;28;20586;-65
2021/10/09 12:13:56;;;;;;;0.25;0.25;;;;;;;;;;10389703;28;20049;-65
2021/10/09 12:18:59;;;;;;;0.40;0.40;;;;;;;;;;10389901;28;20047;-64
2021/10/09 12:24:12;;;;;;;0.30;0.30;;;;;;;;;;10389067;28;20755;-64
2021/10/09 12:29:18;;;;;;;0.20;0.20;;;;;;;;;;10387542;28;20049;-64
2021/10/09 12:34:31;;;;;;;0.30;0.30;;;;;;;;;;10389146;28;20501;-64
2021/10/09 12:39:33;;;;;;;0.20;0.20;;;;;;;;;;10389889;28;20545;-63
2021/10/09 12:44:38;;;;;;;0.20;0.20;;;;;;;;;;10389114;28;20048;-63
2021/10/09 12:49:40;;;;;;;0.20;0.20;;;;;;;;;;10397490;28;20059;-64
2021/10/09 12:54:43;;;;;;;0.20;0.20;;;;;;;;;;10399717;28;20053;-63
2021/10/09 12:59:47;;;;;;;0.20;0.20;;;;;;;;;;10389353;28;20149;-64
2021/10/09 13:04:50;;;;;;;0.20;0.20;;;;;;;;;;10397981;28;20484;-64
2021/10/09 13:09:53;;;;;;;0.70;0.20;;;;;;;;;;10398026;28;20076;-66
2021/10/09 13:14:58;;;;;;;0.20;0.20;;;;;;;;;;10398116;28;20083;-64
2021/10/09 13:20:00;;;;;;;0.20;0.20;;;;;;;;;;10397493;28;20318;-64
2021/10/09 13:25:03;;;;;;;0.20;0.20;;;;;;;;;;10398573;28;20033;-64
2021/10/09 13:30:08;;;;;;;0.20;0.20;;;;;;;;;;10396645;28;20052;-66
2021/10/09 13:35:20;;;;;;;0.10;0.10;;;;;;;;;;10394267;28;20060;-64
2021/10/09 13:40:23;;;;;;;0.20;0.20;;;;;;;;;;10396558;28;20049;-64
2021/10/09 13:45:27;;;;;;;0.20;0.20;;;;;;;;;;10396661;28;20041;-65
2021/10/09 13:50:35;;;;;;;0.13;0.13;;;;;;;;;;10390300;28;20136;-63
2021/10/09 13:55:40;;;;;;;0.10;0.10;;;;;;;;;;10396781;28;20503;-62
2021/10/09 14:00:45;;;;;;;0.47;0.20;;;;;;;;;;10393086;28;20060;-63
2021/10/09 14:05:48;;;;;;;0.10;0.10;;;;;;;;;;10395302;28;20053;-66
2021/10/09 14:10:50;;;;;;;0.10;0.10;;;;;;;;;;10391278;28;20065;-64
2021/10/09 14:15:55;;;;;;;0.30;0.10;;;;;;;;;;10390645;28;20037;-64
2021/10/09 14:20:58;;;;;;;0.32;0.10;;;;;;;;;;10377283;28;20053;-65
2021/10/09 14:26:01;;;;;;;0.43;0.10;;;;;;;;;;10391480;28;20044;-64
2021/10/09 14:31:05;;;;;;;0.10;0.10;;;;;;;;;;10391810;28;20053;-64
2021/10/09 14:36:08;;;;;;;0.10;0.10;;;;;;;;;;10392779;28;20123;-64
2021/10/09 14:41:11;;;;;;;0.10;0.10;;;;;;;;;;10391990;28;20049;-65
2021/10/09 14:51:45;;;;;;;0.10;0.10;;;;;;;;;;10362030;28;20140;-65
2021/10/09 15:02:30;;;;;;;0.10;0.10;;;;;;;;;;10393511;28;20136;-64
2021/10/09 15:18:25;;;;;;;0.10;0.10;;;;;;;;;;10471114;28;20028;-64
2021/10/09 15:23:28;;;;;;;0.10;0.10;;;;;;;;;;10471139;28;20102;-64
2021/10/09 15:28:31;;;;;;;0.10;0.10;;;;;;;;;;10461293;28;20124;-61
2021/10/09 15:33:46;;;;;;;0.10;0.10;;;;;;;;;;10464694;28;20457;-62
2021/10/09 15:38:48;;;;;;;0.10;0.10;;;;;;;;;;10390999;28;20052;-62
2021/10/09 15:43:51;;;;;;;0.20;0.10;;;;;;;;;;10394339;28;20088;-63
2021/10/09 15:48:56;;;;;;;0.10;0.10;;;;;;;;;;10374468;28;20488;-62
2021/10/09 15:53:58;;;;;;;0.10;0.10;;;;;;;;;;10376107;28;20057;-63
2021/10/09 15:59:01;;;;;;;0.10;0.10;;;;;;;;;;10375121;28;20046;-63
2021/10/09 16:04:05;;;;;;;0.10;0.10;;;;;;;;;;10393190;28;20045;-63
2021/10/09 16:09:08;;;;;;;0.28;0.20;;;;;;;;;;10391561;28;20156;-63
2021/10/09 16:14:11;;;;;;;0.10;0.10;;;;;;;;;;10395167;28;20048;-63
2021/10/09 16:19:16;;;;;;;0.10;0.10;;;;;;;;;;10397841;28;20037;-63
2021/10/09 16:24:20;;;;;;;0.10;0.10;;;;;;;;;;10400608;28;20060;-63
2021/10/09 16:29:23;;;;;;;0.10;0.10;;;;;;;;;;10399095;28;20038;-63
2021/10/09 16:34:27;;;;;;;0.28;0.10;;;;;;;;;;10400782;28;20120;-64
2021/10/09 16:39:30;;;;;;;0.10;0.10;;;;;;;;;;10397824;28;20056;-63
2021/10/09 16:44:33;;;;;;;0.10;0.10;;;;;;;;;;10400367;28;20049;-64
2021/10/09 16:49:37;;;;;;;0.10;0.10;;;;;;;;;;10396041;28;20144;-63
2021/10/09 16:54:40;;;;;;;0.13;0.13;;;;;;;;;;10399835;28;20045;-64
2021/10/09 16:59:43;;;;;;;0.20;0.20;;;;;;;;;;10376923;28;20476;-64
2021/10/09 17:04:47;;;;;;;0.10;0.10;;;;;;;;;;10395041;28;20045;-65
2021/10/09 17:09:53;;;;;;;0.05;0.05;;;;;;;;;;10393317;28;20037;-65
2021/10/09 17:14:56;;;;;;;0.10;0.10;;;;;;;;;;10396805;28;20033;-63
2021/10/09 17:20:02;;;;;;;0.55;0.20;;;;;;;;;;10396971;28;20124;-62
2021/10/09 17:25:05;;;;;;;0.43;0.10;;;;;;;;;;10396401;28;20044;-63
2021/10/09 17:30:12;;;;;;;0.20;0.20;;;;;;;;;;10377537;28;20145;-63
2021/10/09 17:35:18;;;;;;;0.32;0.20;;;;;;;;;;10408060;28;20116;-64
2021/10/09 17:40:25;;;;;;;0.10;0.10;;;;;;;;;;10390903;28;20408;-67
2021/10/09 17:45:28;;;;;;;0.10;0.10;;;;;;;;;;10395046;28;20053;-66
2021/10/09 17:50:36;;;;;;;0.20;0.20;;;;;;;;;;10376310;28;20921;-63
2021/10/09 17:55:41;;;;;;;0.17;0.17;;;;;;;;;;10377192;28;20950;-64
2021/10/09 18:00:44;;;;;;;0.20;0.20;;;;;;;;;;10375804;28;20496;-65
2021/10/09 18:05:49;;;;;;;0.10;0.10;;;;;;;;;;10393652;28;20400;-64
2021/10/09 18:10:52;;;;;;;0.28;0.20;;;;;;;;;;10368016;28;20924;-65
2021/10/09 18:15:57;;;;;;;0.10;0.10;;;;;;;;;;10352092;28;20054;-64
2021/10/09 18:21:01;;;;;;;0.20;0.20;;;;;;;;;;10351248;28;20104;-63
2021/10/09 18:26:04;;;;;;;0.30;0.10;;;;;;;;;;10351631;28;20041;-64
2021/10/09 18:31:07;;;;;;;0.10;0.10;;;;;;;;;;10351549;28;20408;-66
2021/10/09 18:36:11;;;;;;;0.10;0.10;;;;;;;;;;10350456;28;20113;-64
2021/10/09 18:41:14;;;;;;;0.20;0.20;;;;;;;;;;10350480;28;20463;-64
2021/10/09 18:46:17;;;;;;;0.10;0.10;;;;;;;;;;10350541;28;20121;-64
2021/10/09 18:51:21;;;;;;;0.32;0.20;;;;;;;;;;10348756;28;20045;-65
2021/10/09 18:56:24;;;;;;;0.20;0.20;;;;;;;;;;10346646;28;20794;-74
2021/10/09 19:01:27;;;;;;;0.13;0.13;;;;;;;;;;10349495;28;20033;-68
2021/10/09 19:06:31;;;;;;;0.10;0.10;;;;;;;;;;10348237;28;20041;-64
2021/10/09 19:11:34;;;;;;;0.10;0.10;;;;;;;;;;10349599;28;20052;-66
2021/10/09 19:16:38;;;;;;;0.15;0.15;;;;;;;;;;10363131;28;20140;-65
2021/10/09 19:21:42;;;;;;;0.20;0.20;;;;;;;;;;10348875;28;20056;-67
2021/10/09 19:26:45;;;;;;;1.05;0.20;;;;;;;;;;10351820;28;20041;-65
2021/10/09 19:31:51;;;;;;;0.10;0.10;;;;;;;;;;10350524;28;20064;-68
2021/10/09 19:37:02;;;;;;;0.57;0.10;;;;;;;;;;10344831;28;20048;-67
2021/10/09 19:42:07;;;;;;;0.20;0.20;;;;;;;;;;10349763;28;20038;-67
2021/10/09 19:47:13;;;;;;;0.20;0.20;;;;;;;;;;10350541;28;20041;-66
2021/10/09 19:52:20;;;;;;;0.10;0.10;;;;;;;;;;10358482;28;20053;-68
2021/10/09 19:57:23;;;;;;;0.20;0.20;;;;;;;;;;10355578;28;20559;-65
2021/10/09 20:02:26;;;;;;;0.70;0.20;;;;;;;;;;10357932;28;20447;-68
2021/10/09 20:07:32;;;;;;;0.20;0.20;;;;;;;;;;10362337;28;20521;-65
2021/10/09 20:12:42;;;;;;;0.10;0.10;;;;;;;;;;10398970;28;20061;-64
2021/10/09 20:17:44;;;;;;;0.20;0.20;;;;;;;;;;10396579;28;20402;-66
2021/10/09 20:22:56;;;;;;;0.20;0.20;;;;;;;;;;10399012;28;20111;-66
2021/10/09 20:28:01;;;;;;;0.20;0.20;;;;;;;;;;10396695;28;20041;-67
2021/10/09 20:33:04;;;;;;;0.20;0.20;;;;;;;;;;10397497;28;20782;-67
2021/10/09 20:38:09;;;;;;;0.20;0.20;;;;;;;;;;10378474;28;20041;-66
2021/10/09 20:43:12;;;;;;;0.10;0.10;;;;;;;;;;10396479;28;20474;-65
2021/10/09 20:48:15;;;;;;;0.20;0.20;;;;;;;;;;10398554;28;20047;-65
2021/10/09 20:53:19;;;;;;;0.20;0.20;;;;;;;;;;10382009;28;20948;-65
2021/10/09 20:58:22;;;;;;;0.50;0.20;;;;;;;;;;10395483;28;20056;-65
2021/10/09 21:03:25;;;;;;;0.10;0.10;;;;;;;;;;10393828;28;20053;-64
2021/10/09 21:08:32;;;;;;;0.10;0.10;;;;;;;;;;10394103;28;20056;-64
2021/10/09 21:24:34;;;;;;;0.10;0.10;;;;;;;;;;10361038;28;20049;-65
2021/10/09 21:29:37;;;;;;;0.13;0.13;;;;;;;;;;10392757;28;20555;-65
2021/10/09 21:34:40;;;;;;;0.20;0.20;;;;;;;;;;10395117;28;20061;-65
2021/10/09 21:39:44;;;;;;;0.20;0.10;;;;;;;;;;10394995;28;20049;-65
2021/10/09 21:44:47;;;;;;;0.10;0.10;;;;;;;;;;10396637;28;20389;-65
2021/10/09 21:49:50;;;;;;;0.20;0.20;;;;;;;;;;10398263;28;20132;-69
2021/10/09 21:54:54;;;;;;;0.20;0.20;;;;;;;;;;10400113;28;20076;-69
2021/10/09 22:00:35;;;;;;;0.10;0.10;;;;;;;;;;10400566;28;20484;-69
2021/10/09 22:32:41;;;;;;;;;;;;;;;;;;10394757;28;20049;-65
2021/10/09 22:37:44;;;;;;;0.10;0.10;;;;;;;;;;10393200;28;20417;-65
2021/10/09 22:42:50;;;;;;;0.20;0.20;;;;;;;;;;10376930;28;20052;-65
2021/10/09 22:47:53;;;;;;;0.20;0.20;;;;;;;;;;10391584;28;20049;-65
2021/10/09 22:52:56;;;;;;;0.20;0.20;;;;;;;;;;10376236;28;20041;-65
2021/10/09 22:58:00;;;;;;;0.20;0.20;;;;;;;;;;10393082;28;20395;-65
2021/10/09 23:03:03;;;;;;;0.20;0.20;;;;;;;;;;10394475;28;20045;-65
2021/10/09 23:08:06;;;;;;;0.20;0.20;;;;;;;;;;10372874;28;20061;-64
2021/10/09 23:13:10;;;;;;;0.20;0.20;;;;;;;;;;10391488;28;20648;-64
2021/10/09 23:18:13;;;;;;;0.20;0.20;;;;;;;;;;10389468;28;20141;-65
2021/10/09 23:23:16;;;;;;;0.20;0.20;;;;;;;;;;10391665;28;20067;-65
2021/10/09 23:28:20;;;;;;;0.20;0.20;;;;;;;;;;10373132;28;20538;-65
2021/10/09 23:33:23;;;;;;;0.20;0.20;;;;;;;;;;10391235;28;20056;-64
2021/10/09 23:38:26;;;;;;;0.20;0.20;;;;;;;;;;10373448;28;20069;-65
2021/10/09 23:43:31;;;;;;;0.20;0.20;;;;;;;;;;10373531;28;20484;-65
2021/10/09 23:48:36;;;;;;;0.20;0.20;;;;;;;;;;10370199;28;20045;-65
2021/10/09 23:53:39;;;;;;;0.10;0.10;;;;;;;;;;10391250;28;20049;-65
2021/10/09 23:58:44;;;;;;;0.30;0.28;;;;;;;;;;10390173;28;20046;-65
